createdAt,value
2023-05-06T00:02:02.390Z,12.22
2023-05-06T00:05:06.014Z,12.24
2023-05-06T00:08:08.647Z,12.29
2023-05-06T00:11:13.798Z,12.19
2023-05-06T00:14:17.534Z,12.14
2023-05-06T00:17:20.128Z,12.02
2023-05-06T00:20:24.038Z,12.19
2023-05-06T00:23:27.358Z,12.17
2023-05-06T00:26:30.405Z,12.06
2023-05-06T00:29:32.838Z,12.03
2023-05-06T00:32:36.638Z,12.05
2023-05-06T00:35:40.814Z,12.03
2023-05-06T00:38:43.490Z,12.03
2023-05-06T00:41:47.281Z,12.12
2023-05-06T00:44:50.407Z,12.14
2023-05-06T00:47:53.196Z,12.12
2023-05-06T00:50:56.026Z,12.31
2023-05-06T00:53:59.770Z,12.40
2023-05-06T00:57:04.161Z,12.27
2023-05-06T01:00:12.614Z,12.16
2023-05-06T01:03:14.963Z,12.27
2023-05-06T01:06:32.823Z,12.32
2023-05-06T01:09:57.034Z,12.30
2023-05-06T01:13:10.434Z,12.28
2023-05-06T01:16:16.614Z,12.30
2023-05-06T01:19:33.429Z,12.26
2023-05-06T01:22:37.529Z,12.22
2023-05-06T01:25:46.291Z,12.23
2023-05-06T01:28:50.730Z,12.26
2023-05-06T01:32:00.531Z,12.32
2023-05-06T01:35:15.728Z,12.32
2023-05-06T01:38:36.286Z,12.27
2023-05-06T01:41:42.632Z,12.26
2023-05-06T01:44:48.401Z,12.25
2023-05-06T01:47:51.329Z,12.20
2023-05-06T01:50:56.057Z,12.15
2023-05-06T01:54:04.925Z,12.09
2023-05-06T01:57:08.077Z,12.08
2023-05-06T02:00:13.695Z,12.01
2023-05-06T02:03:23.703Z,12.02
2023-05-06T02:06:29.715Z,11.99
2023-05-06T02:09:31.864Z,11.87
2023-05-06T02:12:39.408Z,11.82
2023-05-06T02:15:43.377Z,11.79
2023-05-06T02:18:48.179Z,11.79
2023-05-06T02:21:51.162Z,11.81
2023-05-06T02:24:53.885Z,11.82
2023-05-06T02:27:56.577Z,11.93
2023-05-06T02:30:59.773Z,11.85
2023-05-06T02:34:03.148Z,11.83
2023-05-06T02:37:06.216Z,11.76
2023-05-06T02:40:13.352Z,11.67
2023-05-06T02:43:31.316Z,11.59
2023-05-06T02:46:34.967Z,11.68
2023-05-06T02:49:43.622Z,11.60
2023-05-06T02:52:49.432Z,11.48
2023-05-06T02:55:52.987Z,11.43
2023-05-06T02:58:57.306Z,11.49
2023-05-06T03:02:05.889Z,11.43
2023-05-06T03:05:10.417Z,11.41
2023-05-06T03:08:18.890Z,11.40
2023-05-06T03:11:22.381Z,11.39
2023-05-06T03:14:27.128Z,11.36
2023-05-06T03:17:31.986Z,11.43
2023-05-06T03:20:34.518Z,11.43
2023-05-06T03:23:37.325Z,11.44
2023-05-06T03:26:40.548Z,11.53
2023-05-06T03:29:43.999Z,11.53
2023-05-06T03:32:48.924Z,11.53
2023-05-06T03:35:54.322Z,11.55
2023-05-06T03:39:01.707Z,11.65
2023-05-06T03:42:06.459Z,11.61
2023-05-06T03:45:15.469Z,11.64
2023-05-06T03:48:17.970Z,11.72
2023-05-06T03:51:24.390Z,11.85
2023-05-06T03:54:28.035Z,11.88
2023-05-06T03:57:37.442Z,11.80
2023-05-06T04:00:42.604Z,11.81
2023-05-06T04:03:45.392Z,11.83
2023-05-06T04:06:49.137Z,11.89
2023-05-06T04:09:58.680Z,11.95
2023-05-06T04:13:05.081Z,11.88
2023-05-06T04:16:15.886Z,11.98
2023-05-06T04:19:22.881Z,12.01
2023-05-06T04:22:27.947Z,12.02
2023-05-06T04:25:34.087Z,12.22
2023-05-06T04:28:41.111Z,12.36
2023-05-06T04:31:48.143Z,12.42
2023-05-06T04:34:53.664Z,12.50
2023-05-06T04:37:59.869Z,12.73
2023-05-06T04:41:08.810Z,12.65
2023-05-06T04:44:13.298Z,12.79
2023-05-06T04:47:17.269Z,12.95
2023-05-06T04:50:22.694Z,13.07
2023-05-06T04:53:25.749Z,13.16
2023-05-06T04:56:35.039Z,13.26
2023-05-06T04:59:40.294Z,13.32
2023-05-06T05:02:46.121Z,13.38
2023-05-06T05:05:49.218Z,13.45
2023-05-06T05:08:53.429Z,13.51
2023-05-06T05:12:01.063Z,13.48
2023-05-06T05:15:04.766Z,13.62
2023-05-06T05:18:07.318Z,13.60
2023-05-06T05:21:11.455Z,13.71
2023-05-06T05:24:18.398Z,13.92
2023-05-06T05:27:23.439Z,14.06
2023-05-06T05:30:31.470Z,14.23
2023-05-06T05:33:36.924Z,14.39
2023-05-06T05:36:41.365Z,14.58
2023-05-06T05:39:44.864Z,14.78
2023-05-06T05:42:47.142Z,15.30
2023-05-06T05:45:49.722Z,15.47
2023-05-06T05:48:55.681Z,15.60
2023-05-06T05:52:01.291Z,15.53
2023-05-06T05:55:08.394Z,15.82
2023-05-06T05:58:14.161Z,16.11
2023-05-06T06:01:16.962Z,16.62
2023-05-06T06:04:19.327Z,17.04
2023-05-06T06:07:23.395Z,17.76
2023-05-06T06:10:25.732Z,18.19
2023-05-06T06:13:29.964Z,19.22
2023-05-06T06:16:32.762Z,19.20
2023-05-06T06:19:35.363Z,19.01
2023-05-06T06:22:38.892Z,19.03
2023-05-06T06:25:48.395Z,18.81
2023-05-06T06:28:53.788Z,18.21
2023-05-06T06:31:58.503Z,17.23
2023-05-06T06:35:01.242Z,17.60
2023-05-06T06:38:04.145Z,17.67
2023-05-06T06:41:08.429Z,18.10
2023-05-06T06:44:13.255Z,18.04
2023-05-06T06:47:19.250Z,18.01
2023-05-06T06:50:24.815Z,18.29
2023-05-06T06:53:29.728Z,17.86
2023-05-06T06:56:32.217Z,18.41
2023-05-06T06:59:38.362Z,18.81
2023-05-06T07:02:43.368Z,19.09
2023-05-06T07:05:47.127Z,19.19
2023-05-06T07:08:50.547Z,19.43
2023-05-06T07:11:54.047Z,19.54
2023-05-06T07:14:59.174Z,21.08
2023-05-06T07:18:03.334Z,21.55
2023-05-06T07:21:05.716Z,21.59
2023-05-06T07:24:08.252Z,24.22
2023-05-06T07:27:11.894Z,27.01
2023-05-06T07:30:15.341Z,28.23
2023-05-06T07:33:19.072Z,27.94
2023-05-06T07:36:23.175Z,28.79
2023-05-06T07:39:28.829Z,29.06
2023-05-06T07:42:32.139Z,28.48
2023-05-06T07:45:39.130Z,28.57
2023-05-06T07:48:41.495Z,28.69
2023-05-06T07:51:44.398Z,30.02
2023-05-06T07:54:47.384Z,29.61
2023-05-06T07:57:52.216Z,29.99
2023-05-06T08:00:56.744Z,29.75
2023-05-06T08:04:06.581Z,28.90
2023-05-06T08:07:10.306Z,27.97
2023-05-06T08:10:12.775Z,26.77
2023-05-06T08:13:15.899Z,25.22
2023-05-06T08:16:19.699Z,24.85
2023-05-06T08:19:24.820Z,24.77
2023-05-06T08:22:27.960Z,23.70
2023-05-06T08:25:31.782Z,23.03
2023-05-06T08:28:35.367Z,23.04
2023-05-06T08:31:41.216Z,22.60
2023-05-06T08:34:45.575Z,22.86
2023-05-06T08:37:48.016Z,22.94
2023-05-06T08:40:53.558Z,22.95
2023-05-06T08:43:58.214Z,23.18
2023-05-06T08:47:02.102Z,23.40
2023-05-06T08:50:05.688Z,23.47
2023-05-06T08:53:10.815Z,23.57
2023-05-06T08:56:14.885Z,23.60
2023-05-06T08:59:19.597Z,23.48
2023-05-06T09:02:23.019Z,23.53
2023-05-06T09:05:25.976Z,24.07
2023-05-06T09:08:28.675Z,23.60
2023-05-06T09:11:31.620Z,23.44
2023-05-06T09:14:34.640Z,23.60
2023-05-06T09:17:37.705Z,23.45
2023-05-06T09:20:44.725Z,23.55
2023-05-06T09:23:47.732Z,23.81
2023-05-06T09:26:52.350Z,24.02
2023-05-06T09:30:04.732Z,24.26
2023-05-06T09:33:08.626Z,24.48
2023-05-06T09:36:13.626Z,24.54
2023-05-06T09:39:16.722Z,24.15
2023-05-06T09:42:19.305Z,24.22
2023-05-06T09:45:22.027Z,24.28
2023-05-06T09:48:24.981Z,24.18
2023-05-06T09:51:30.178Z,23.69
2023-05-06T09:54:33.525Z,23.79
2023-05-06T09:57:37.747Z,24.04
2023-05-06T10:00:40.093Z,24.13
2023-05-06T10:03:43.341Z,24.00
2023-05-06T10:06:49.685Z,23.76
2023-05-06T10:09:54.450Z,23.59
2023-05-06T10:12:57.864Z,23.47
2023-05-06T10:16:02.170Z,23.19
2023-05-06T10:19:07.526Z,23.12
2023-05-06T10:22:19.088Z,23.30
2023-05-06T10:25:22.050Z,23.64
2023-05-06T10:28:30.468Z,24.47
2023-05-06T10:31:35.290Z,24.78
2023-05-06T10:34:41.699Z,24.50
2023-05-06T10:37:45.906Z,24.64
2023-05-06T10:40:49.823Z,24.35
2023-05-06T10:44:00.717Z,24.27
2023-05-06T10:47:04.087Z,24.32
2023-05-06T10:50:20.622Z,24.23
2023-05-06T10:53:42.832Z,24.31
2023-05-06T10:56:46.434Z,24.36
2023-05-06T10:59:49.927Z,24.22
2023-05-06T11:02:58.340Z,24.17
2023-05-06T11:06:02.059Z,23.95
2023-05-06T11:09:16.915Z,23.83
2023-05-06T11:12:21.130Z,23.76
2023-05-06T11:15:41.989Z,23.78
2023-05-06T11:18:45.803Z,23.82
2023-05-06T11:21:49.444Z,23.93
2023-05-06T11:24:53.257Z,24.13
2023-05-06T11:27:56.449Z,24.51
2023-05-06T11:31:01.070Z,24.80
2023-05-06T11:34:07.672Z,25.17
2023-05-06T11:37:11.415Z,25.29
2023-05-06T11:40:16.472Z,25.55
2023-05-06T11:43:19.872Z,25.37
2023-05-06T11:46:23.708Z,25.26
2023-05-06T11:49:28.161Z,25.06
2023-05-06T11:52:33.414Z,25.04
2023-05-06T11:55:36.973Z,24.82
2023-05-06T11:58:40.468Z,25.17
2023-05-06T12:01:45.301Z,25.57
2023-05-06T12:04:49.095Z,25.60
2023-05-06T12:07:52.403Z,25.27
2023-05-06T12:10:56.453Z,24.49
2023-05-06T12:13:59.929Z,24.37
2023-05-06T12:17:02.913Z,24.32
2023-05-06T12:20:06.192Z,24.22
2023-05-06T12:23:13.190Z,23.97
2023-05-06T12:26:15.885Z,23.92
2023-05-06T12:29:18.881Z,23.66
2023-05-06T12:32:23.300Z,23.51
2023-05-06T12:35:30.180Z,23.39
2023-05-06T12:38:33.027Z,23.38
2023-05-06T12:41:37.362Z,23.22
2023-05-06T12:44:41.003Z,23.23
2023-05-06T12:47:52.954Z,23.19
2023-05-06T12:50:55.681Z,23.03
2023-05-06T12:53:59.010Z,23.00
2023-05-06T12:57:01.938Z,22.93
2023-05-06T13:00:07.866Z,23.14
2023-05-06T13:03:11.786Z,23.20
2023-05-06T13:06:16.608Z,23.22
2023-05-06T13:09:20.835Z,23.16
2023-05-06T13:12:23.608Z,22.97
2023-05-06T13:15:26.701Z,22.92
2023-05-06T13:18:29.990Z,22.81
2023-05-06T13:21:32.482Z,22.81
2023-05-06T13:24:35.684Z,22.87
2023-05-06T13:27:40.922Z,22.67
2023-05-06T13:30:44.124Z,22.61
2023-05-06T13:33:48.333Z,22.63
2023-05-06T13:36:54.992Z,22.70
2023-05-06T13:39:58.122Z,22.51
2023-05-06T13:43:02.014Z,22.47
2023-05-06T13:46:05.675Z,22.49
2023-05-06T13:49:09.121Z,22.14
2023-05-06T13:52:12.860Z,21.47
2023-05-06T13:55:16.456Z,20.78
2023-05-06T13:58:21.247Z,20.77
2023-05-06T14:01:24.235Z,20.66
2023-05-06T14:04:27.192Z,20.77
2023-05-06T14:07:30.011Z,20.42
2023-05-06T14:10:33.523Z,20.11
2023-05-06T14:13:38.132Z,20.00
2023-05-06T14:16:41.169Z,19.78
2023-05-06T14:19:44.018Z,19.94
2023-05-06T14:22:46.755Z,19.82
2023-05-06T14:25:50.193Z,19.68
2023-05-06T14:28:53.129Z,19.43
2023-05-06T14:31:56.451Z,19.29
2023-05-06T14:35:00.956Z,19.08
2023-05-06T14:38:04.461Z,19.05
2023-05-06T14:41:07.652Z,18.94
2023-05-06T14:44:10.987Z,18.81
2023-05-06T14:47:13.461Z,18.75
2023-05-06T14:50:16.259Z,18.33
2023-05-06T14:53:19.024Z,18.12
2023-05-06T14:56:21.555Z,18.00
2023-05-06T14:59:24.734Z,17.99
2023-05-06T15:02:28.060Z,17.86
2023-05-06T15:05:30.744Z,17.65
2023-05-06T15:08:33.789Z,17.34
2023-05-06T15:11:37.371Z,17.32
2023-05-06T15:14:42.404Z,17.38
2023-05-06T15:17:45.912Z,17.42
2023-05-06T15:20:49.311Z,17.49
2023-05-06T15:23:52.189Z,17.61
2023-05-06T15:26:56.111Z,17.72
2023-05-06T15:29:59.481Z,17.81
2023-05-06T15:33:03.536Z,17.89
2023-05-06T15:36:07.351Z,17.85
2023-05-06T15:39:11.560Z,17.89
2023-05-06T15:42:14.905Z,17.96
2023-05-06T15:45:18.082Z,18.07
2023-05-06T15:48:21.581Z,18.25
2023-05-06T15:51:25.272Z,18.21
2023-05-06T15:54:28.242Z,18.34
2023-05-06T15:57:31.763Z,18.41
2023-05-06T16:00:34.960Z,18.63
2023-05-06T16:03:39.190Z,18.69
2023-05-06T16:06:42.275Z,19.01
2023-05-06T16:09:45.161Z,19.18
2023-05-06T16:12:49.218Z,19.44
2023-05-06T16:15:52.403Z,19.78
2023-05-06T16:18:55.584Z,19.84
2023-05-06T16:21:58.609Z,19.98
2023-05-06T16:25:01.495Z,19.87
2023-05-06T16:28:04.921Z,19.88
2023-05-06T16:31:07.863Z,19.70
2023-05-06T16:34:10.335Z,19.74
2023-05-06T16:37:14.909Z,19.55
2023-05-06T16:40:19.122Z,19.37
2023-05-06T16:43:22.005Z,19.16
2023-05-06T16:46:30.423Z,19.03
2023-05-06T16:49:36.857Z,18.84
2023-05-06T16:52:39.043Z,18.68
2023-05-06T16:55:50.091Z,18.58
2023-05-06T16:58:54.860Z,18.51
2023-05-06T17:01:59.589Z,18.47
2023-05-06T17:05:01.897Z,18.40
2023-05-06T17:08:04.528Z,18.34
2023-05-06T17:11:11.134Z,18.26
2023-05-06T17:14:16.976Z,18.15
2023-05-06T17:17:21.445Z,18.10
2023-05-06T17:20:24.550Z,18.09
2023-05-06T17:23:27.682Z,18.15
2023-05-06T17:26:34.374Z,18.16
2023-05-06T17:29:38.680Z,18.15
2023-05-06T17:32:42.841Z,18.13
2023-05-06T17:35:45.947Z,18.10
2023-05-06T17:38:48.576Z,18.04
2023-05-06T17:41:54.637Z,17.98
2023-05-06T17:45:00.504Z,17.91
2023-05-06T17:48:05.667Z,17.80
2023-05-06T17:51:09.625Z,17.71
2023-05-06T17:54:13.117Z,17.68
2023-05-06T17:57:16.353Z,17.66
2023-05-06T18:00:21.556Z,17.62
2023-05-06T18:03:26.554Z,17.57
2023-05-06T18:06:30.088Z,17.54
2023-05-06T18:09:33.450Z,17.53
2023-05-06T18:12:37.182Z,17.53
2023-05-06T18:15:42.350Z,17.50
2023-05-06T18:18:47.474Z,17.46
2023-05-06T18:21:50.640Z,17.43
2023-05-06T18:24:56.342Z,17.42
2023-05-06T18:27:58.922Z,17.42
2023-05-06T18:31:04.621Z,17.41
2023-05-06T18:34:08.742Z,17.41
2023-05-06T18:37:11.349Z,17.37
2023-05-06T18:40:17.586Z,17.37
2023-05-06T18:43:23.566Z,17.36
2023-05-06T18:46:28.159Z,17.44
2023-05-06T18:49:31.373Z,17.39
2023-05-06T18:52:37.031Z,17.37
2023-05-06T18:55:39.625Z,17.33
2023-05-06T18:58:43.113Z,17.29
2023-05-06T19:01:55.008Z,17.21
2023-05-06T19:05:00.205Z,17.16
2023-05-06T19:08:06.335Z,17.22
2023-05-06T19:11:15.488Z,17.11
2023-05-06T19:14:18.689Z,17.10
2023-05-06T19:17:23.585Z,17.02
2023-05-06T19:20:26.295Z,16.97
2023-05-06T19:23:31.042Z,16.95
2023-05-06T19:26:35.236Z,16.98
2023-05-06T19:29:39.386Z,16.97
2023-05-06T19:32:45.380Z,17.09
2023-05-06T19:35:48.212Z,17.06
2023-05-06T19:38:50.537Z,17.09
2023-05-06T19:41:55.651Z,17.12
2023-05-06T19:44:57.703Z,17.28
2023-05-06T19:48:00.641Z,16.96
2023-05-06T19:51:04.174Z,16.95
2023-05-06T19:54:06.532Z,16.93
2023-05-06T19:57:09.749Z,16.97
2023-05-06T20:00:14.476Z,17.05
2023-05-06T20:03:17.158Z,17.19
2023-05-06T20:06:20.141Z,17.16
2023-05-06T20:09:23.450Z,17.25
2023-05-06T20:12:29.854Z,17.30
2023-05-06T20:15:37.657Z,17.24
2023-05-06T20:18:42.871Z,17.09
2023-05-06T20:21:48.513Z,17.03
2023-05-06T20:24:52.051Z,17.04
2023-05-06T20:28:00.464Z,17.12
2023-05-06T20:31:03.342Z,17.17
2023-05-06T20:34:07.054Z,17.20
2023-05-06T20:37:10.894Z,17.23
2023-05-06T20:40:14.611Z,17.23
2023-05-06T20:43:16.962Z,17.20
2023-05-06T20:46:21.139Z,17.18
2023-05-06T20:49:24.152Z,17.13
2023-05-06T20:52:31.342Z,17.15
2023-05-06T20:55:34.027Z,17.15
2023-05-06T20:58:38.765Z,16.98
2023-05-06T21:01:41.595Z,16.89
2023-05-06T21:04:44.002Z,16.88
2023-05-06T21:07:47.768Z,16.90
2023-05-06T21:10:51.153Z,16.89
2023-05-06T21:13:53.722Z,16.89
2023-05-06T21:16:57.051Z,16.89
2023-05-06T21:19:59.700Z,16.87
2023-05-06T21:23:04.393Z,16.84
2023-05-06T21:26:08.357Z,16.77
2023-05-06T21:29:11.130Z,16.71
2023-05-06T21:32:13.680Z,16.67
2023-05-06T21:35:17.330Z,16.65
2023-05-06T21:38:20.375Z,16.58
2023-05-06T21:41:23.591Z,16.47
2023-05-06T21:44:26.990Z,16.46
2023-05-06T21:47:33.378Z,16.42
2023-05-06T21:50:42.054Z,16.42
2023-05-06T21:53:46.734Z,16.32
2023-05-06T21:56:50.039Z,16.23
2023-05-06T21:59:53.906Z,16.14
2023-05-06T22:02:58.032Z,16.06
2023-05-06T22:06:01.486Z,16.01
2023-05-06T22:09:09.960Z,15.97
2023-05-06T22:12:13.245Z,16.06
2023-05-06T22:15:15.857Z,16.21
2023-05-06T22:18:19.600Z,16.28
2023-05-06T22:21:24.736Z,16.27
2023-05-06T22:24:28.998Z,16.15
2023-05-06T22:27:31.868Z,16.08
2023-05-06T22:30:34.424Z,16.06
2023-05-06T22:33:38.509Z,16.11
2023-05-06T22:36:41.656Z,16.00
2023-05-06T22:39:44.146Z,15.93
2023-05-06T22:42:49.079Z,15.90
2023-05-06T22:45:51.793Z,15.95
2023-05-06T22:48:54.310Z,15.94
2023-05-06T22:51:57.966Z,15.92
2023-05-06T22:55:02.002Z,15.72
2023-05-06T22:58:05.147Z,15.66
2023-05-06T23:01:10.019Z,15.58
2023-05-06T23:04:12.375Z,15.56
2023-05-06T23:07:15.043Z,15.47
2023-05-06T23:10:19.990Z,15.36
2023-05-06T23:13:23.260Z,15.33
2023-05-06T23:16:30.284Z,15.40
2023-05-06T23:19:33.803Z,15.43
2023-05-06T23:22:37.107Z,15.34
2023-05-06T23:25:42.781Z,15.27
2023-05-06T23:28:46.725Z,15.27
2023-05-06T23:31:49.921Z,15.23
2023-05-06T23:34:55.166Z,15.23
2023-05-06T23:37:58.967Z,15.14
2023-05-06T23:41:08.137Z,15.10
2023-05-06T23:44:12.328Z,15.03
2023-05-06T23:47:16.138Z,15.01
2023-05-06T23:50:20.761Z,14.96
2023-05-06T23:53:23.659Z,14.98
2023-05-06T23:56:27.455Z,14.93
2023-05-06T23:59:33.831Z,14.96
